< < Back
Terminal Aerodrome Forecast


Current Version              Previous Versions:   1  2  3  4  5  6  7  8  9  

Terminal Aerodrome Forecast

002
FTUS42 KJAX 202300 RRA
TAFGNV
TAF
KGNV 202342Z 2100/2124 30007KT P6SM SCT250
     FM210200 24004KT P6SM FEW250
     FM211500 27005KT P6SM SCT040=

Latest METAR

802
SAUS70 KWBC 211800 RRI
MTRGNV
METAR KGNV 211753Z VRB04KT 10SM FEW047 34/23 A3009 RMK AO2 SLP186
T03390228 56016


USA.gov is the U.S. government's official web portal to all federal, state and local government web resources and services.